createdAt,value
2018-10-11T00:02:12.691Z,98220.19
2018-10-11T00:04:41.193Z,98225.34
2018-10-11T00:07:09.748Z,98220.91
2018-10-11T00:09:38.229Z,98225.27
2018-10-11T00:12:06.793Z,98223.22
2018-10-11T00:14:35.290Z,98218.56
2018-10-11T00:17:03.785Z,98222.79
2018-10-11T00:19:32.269Z,98223.08
2018-10-11T00:22:00.732Z,98223.08
2018-10-11T00:24:29.316Z,98217.17
2018-10-11T00:26:57.842Z,98213.86
2018-10-11T00:29:26.396Z,98213.44
2018-10-11T00:31:54.892Z,98215.94
2018-10-11T00:34:23.472Z,98218.68
2018-10-11T00:36:51.982Z,98214.59
2018-10-11T00:39:20.577Z,98205.02
2018-10-11T00:41:49.043Z,98207.55
2018-10-11T00:44:17.558Z,98213.47
2018-10-11T00:46:47.200Z,98224.45
2018-10-11T00:49:15.819Z,98234.88
2018-10-11T00:51:44.294Z,98228.00
2018-10-11T00:54:12.871Z,98227.78
2018-10-11T00:56:41.673Z,98233.45
2018-10-11T00:59:11.102Z,98237.24
2018-10-11T01:01:40.029Z,98234.84
2018-10-11T01:04:08.521Z,98231.52
2018-10-11T01:06:37.037Z,98225.58
2018-10-11T01:09:07.582Z,98227.22
2018-10-11T01:11:36.353Z,98222.92
2018-10-11T01:14:04.812Z,98229.60
2018-10-11T01:16:33.297Z,98233.95
2018-10-11T01:19:02.748Z,98233.95
2018-10-11T01:21:31.246Z,98240.42
2018-10-11T01:23:59.711Z,98243.09
2018-10-11T01:26:28.328Z,98223.00
2018-10-11T01:28:56.834Z,98221.49
2018-10-11T01:31:25.930Z,98212.12
2018-10-11T01:33:54.688Z,98214.73
2018-10-11T01:36:23.218Z,98213.08
2018-10-11T01:38:53.467Z,98202.83
2018-10-11T01:41:22.390Z,98203.22
2018-10-11T01:43:50.994Z,98201.20
2018-10-11T01:46:19.495Z,98198.25
2018-10-11T01:48:48.068Z,98188.13
2018-10-11T01:51:16.625Z,98185.46
2018-10-11T01:53:45.124Z,98193.43
2018-10-11T01:56:13.894Z,98192.73
2018-10-11T01:58:42.398Z,98196.03
2018-10-11T02:01:10.986Z,98209.86
2018-10-11T02:03:39.482Z,98227.45
2018-10-11T02:06:08.027Z,98231.62
2018-10-11T02:08:36.542Z,98222.83
2018-10-11T02:11:05.065Z,98218.02
2018-10-11T02:13:33.549Z,98211.17
2018-10-11T02:16:02.069Z,98204.50
2018-10-11T02:18:30.545Z,98203.63
2018-10-11T02:20:59.053Z,98205.05
2018-10-11T02:23:27.685Z,98210.94
2018-10-11T02:25:56.194Z,98226.96
2018-10-11T02:28:24.799Z,98222.58
2018-10-11T02:30:53.305Z,98221.24
2018-10-11T02:33:21.773Z,98230.09
2018-10-11T02:35:50.279Z,98238.03
2018-10-11T02:38:18.737Z,98241.20
2018-10-11T02:40:47.301Z,98234.22
2018-10-11T02:43:15.917Z,98244.78
2018-10-11T02:45:44.654Z,98255.72
2018-10-11T02:48:13.453Z,98241.42
2018-10-11T02:50:41.926Z,98238.28
2018-10-11T02:53:10.676Z,98236.38
2018-10-11T02:55:39.269Z,98242.58
2018-10-11T02:58:18.973Z,98250.84
2018-10-11T03:00:47.502Z,98242.58
2018-10-11T03:03:19.549Z,98245.52
2018-10-11T03:05:48.168Z,98232.55
2018-10-11T03:08:19.248Z,98238.60
2018-10-11T03:10:48.142Z,98237.50
2018-10-11T03:13:16.689Z,98238.46
2018-10-11T03:15:45.497Z,98253.34
2018-10-11T03:18:14.690Z,98252.39
2018-10-11T03:20:44.377Z,98255.14
2018-10-11T03:23:13.957Z,98257.58
2018-10-11T03:25:43.733Z,98261.82
2018-10-11T03:28:13.780Z,98267.19
2018-10-11T03:30:42.800Z,98260.20
2018-10-11T03:33:12.059Z,98268.29
2018-10-11T03:35:41.296Z,98273.66
2018-10-11T03:38:10.013Z,98284.45
2018-10-11T03:40:38.722Z,98285.92
2018-10-11T03:43:07.275Z,98295.03
2018-10-11T03:45:35.807Z,98290.55
2018-10-11T03:48:04.335Z,98291.16
2018-10-11T03:50:32.813Z,98290.81
2018-10-11T03:53:01.380Z,98289.33
2018-10-11T03:55:30.005Z,98297.22
2018-10-11T03:57:58.529Z,98301.95
2018-10-11T04:00:27.795Z,98304.23
2018-10-11T04:02:56.471Z,98305.34
2018-10-11T04:05:25.197Z,98302.64
2018-10-11T04:07:53.693Z,98310.13
2018-10-11T04:10:22.216Z,98302.97
2018-10-11T04:12:50.689Z,98298.82
2018-10-11T04:15:19.157Z,98300.51
2018-10-11T04:17:47.601Z,98304.62
2018-10-11T04:20:16.153Z,98311.19
2018-10-11T04:22:44.668Z,98311.30
2018-10-11T04:25:13.265Z,98314.81
2018-10-11T04:27:42.226Z,98307.45
2018-10-11T04:30:10.866Z,98298.80
2018-10-11T04:32:39.421Z,98293.83
2018-10-11T04:35:07.861Z,98295.75
2018-10-11T04:37:36.294Z,98302.77
2018-10-11T04:40:04.736Z,98301.30
2018-10-11T04:42:33.272Z,98299.69
2018-10-11T04:45:01.812Z,98307.55
2018-10-11T04:47:30.282Z,98309.97
2018-10-11T04:49:58.760Z,98313.13
2018-10-11T04:52:27.272Z,98314.31
2018-10-11T04:54:55.698Z,98313.70
2018-10-11T04:57:24.198Z,98317.98
2018-10-11T04:59:52.647Z,98325.00
2018-10-11T05:02:21.141Z,98328.66
2018-10-11T05:04:49.570Z,98321.84
2018-10-11T05:07:18.007Z,98335.08
2018-10-11T05:09:46.442Z,98339.09
2018-10-11T05:12:14.970Z,98339.32
2018-10-11T05:14:44.057Z,98331.80
2018-10-11T05:17:12.675Z,98335.92
2018-10-11T05:19:41.394Z,98336.30
2018-10-11T05:22:09.931Z,98342.63
2018-10-11T05:24:38.421Z,98342.89
2018-10-11T05:27:07.115Z,98333.63
2018-10-11T05:29:35.606Z,98339.35
2018-10-11T05:32:04.108Z,98344.17
2018-10-11T05:34:32.712Z,98347.53
2018-10-11T05:37:01.138Z,98348.86
2018-10-11T05:39:29.675Z,98347.45
2018-10-11T05:41:58.242Z,98345.30
2018-10-11T05:44:26.949Z,98343.98
2018-10-11T05:46:55.475Z,98345.89
2018-10-11T05:49:24.136Z,98340.94
2018-10-11T05:51:52.832Z,98342.77
2018-10-11T05:54:21.434Z,98340.03
2018-10-11T05:56:50.747Z,98339.57
2018-10-11T05:59:19.374Z,98351.09
2018-10-11T06:01:47.989Z,98352.46
2018-10-11T06:04:16.821Z,98353.91
2018-10-11T06:06:46.669Z,98361.06
2018-10-11T06:09:15.307Z,98377.78
2018-10-11T06:11:44.749Z,98378.21
2018-10-11T06:14:13.879Z,98362.64
2018-10-11T06:16:42.391Z,98356.66
2018-10-11T06:19:12.166Z,98367.22
2018-10-11T06:21:40.653Z,98367.52
2018-10-11T06:24:09.154Z,98375.61
2018-10-11T06:26:37.629Z,98382.10
2018-10-11T06:29:06.585Z,98376.06
2018-10-11T06:31:35.082Z,98379.17
2018-10-11T06:34:03.613Z,98376.69
2018-10-11T06:36:32.549Z,98385.67
2018-10-11T06:39:01.814Z,98384.48
2018-10-11T06:41:30.269Z,98383.80
2018-10-11T06:43:58.977Z,98384.39
2018-10-11T06:46:27.486Z,98387.08
2018-10-11T06:48:56.005Z,98393.78
2018-10-11T06:51:24.522Z,98395.05
2018-10-11T06:53:53.079Z,98410.52
2018-10-11T06:56:21.773Z,98412.65
2018-10-11T06:58:50.214Z,98411.77
2018-10-11T07:01:18.653Z,98405.57
2018-10-11T07:03:47.154Z,98408.33
2018-10-11T07:06:15.756Z,98421.17
2018-10-11T07:08:44.213Z,98416.72
2018-10-11T07:11:12.669Z,98421.73
2018-10-11T07:13:41.378Z,98418.13
2018-10-11T07:16:09.861Z,98417.41
2018-10-11T07:18:38.320Z,98423.91
2018-10-11T07:21:06.745Z,98425.59
2018-10-11T07:23:35.205Z,98433.00
2018-10-11T07:26:03.708Z,98443.31
2018-10-11T07:28:32.178Z,98449.27
2018-10-11T07:31:00.647Z,98455.66
2018-10-11T07:33:29.139Z,98455.77
2018-10-11T07:35:57.561Z,98451.52
2018-10-11T07:38:25.996Z,98455.02
2018-10-11T07:40:54.471Z,98453.44
2018-10-11T07:43:22.945Z,98455.38
2018-10-11T07:45:51.465Z,98453.03
2018-10-11T07:48:19.917Z,98459.85
2018-10-11T07:50:48.359Z,98470.30
2018-10-11T07:53:17.090Z,98462.94
2018-10-11T07:55:45.533Z,98458.27
2018-10-11T07:58:13.989Z,98469.08
2018-10-11T08:00:42.414Z,98478.12
2018-10-11T08:03:10.848Z,98479.22
2018-10-11T08:05:39.271Z,98477.27
2018-10-11T08:08:07.752Z,98480.48
2018-10-11T08:10:36.302Z,98475.19
2018-10-11T08:13:04.645Z,98483.42
2018-10-11T08:15:33.058Z,98485.66
2018-10-11T08:18:01.708Z,98485.01
2018-10-11T08:20:29.952Z,98480.58
2018-10-11T08:22:58.381Z,98487.34
2018-10-11T08:25:27.122Z,98488.70
2018-10-11T08:27:55.284Z,98481.54
2018-10-11T08:30:23.778Z,98479.36
2018-10-11T08:32:52.329Z,98485.44
2018-10-11T08:35:20.756Z,98484.61
2018-10-11T08:37:49.238Z,98477.86
2018-10-11T08:40:17.652Z,98479.33
2018-10-11T08:42:46.132Z,98480.09
2018-10-11T08:45:14.651Z,98483.36
2018-10-11T08:47:43.089Z,98492.03
2018-10-11T08:50:11.585Z,98490.31
2018-10-11T08:52:39.986Z,98491.32
2018-10-11T08:55:08.512Z,98490.48
2018-10-11T08:58:40.345Z,98494.22
2018-10-11T09:01:09.422Z,98491.69
2018-10-11T09:03:37.969Z,98489.33
2018-10-11T09:06:06.494Z,98488.81
2018-10-11T09:08:34.979Z,98491.36
2018-10-11T09:11:03.427Z,98494.90
2018-10-11T09:13:31.842Z,98489.80
2018-10-11T09:16:00.310Z,98490.59
2018-10-11T09:18:28.806Z,98488.52
2018-10-11T09:20:57.218Z,98484.14
2018-10-11T09:23:25.826Z,98484.98
2018-10-11T09:25:54.461Z,98488.99
2018-10-11T09:28:22.877Z,98490.19
2018-10-11T09:30:51.345Z,98498.45
2018-10-11T09:33:19.790Z,98498.31
2018-10-11T09:35:48.225Z,98495.76
2018-10-11T09:38:16.633Z,98487.83
2018-10-11T09:40:45.166Z,98489.53
2018-10-11T09:43:13.737Z,98483.95
2018-10-11T09:45:42.122Z,98487.53
2018-10-11T09:48:10.533Z,98476.59
2018-10-11T09:50:39.186Z,98476.95
2018-10-11T09:53:07.662Z,98477.45
2018-10-11T09:55:36.118Z,98467.67
2018-10-11T09:58:04.616Z,98462.28
2018-10-11T10:00:33.042Z,98453.15
2018-10-11T10:03:01.566Z,98441.91
2018-10-11T10:05:30.041Z,98432.80
2018-10-11T10:07:58.449Z,98424.17
2018-10-11T10:10:26.971Z,98422.81
2018-10-11T10:12:55.466Z,98422.28
2018-10-11T10:15:24.137Z,98417.06
2018-10-11T10:17:52.552Z,98421.55
2018-10-11T10:20:20.987Z,98430.13
2018-10-11T10:22:49.450Z,98441.42
2018-10-11T10:25:17.881Z,98449.69
2018-10-11T10:27:46.283Z,98438.26
2018-10-11T10:30:20.086Z,98441.94
2018-10-11T10:32:48.539Z,98435.09
2018-10-11T10:35:16.988Z,98430.53
2018-10-11T10:37:45.381Z,98422.63
2018-10-11T10:40:13.978Z,98420.37
2018-10-11T10:42:42.446Z,98416.55
2018-10-11T10:45:10.873Z,98420.80
2018-10-11T10:47:39.350Z,98415.06
2018-10-11T10:50:07.921Z,98414.36
2018-10-11T10:52:36.444Z,98416.94
2018-10-11T10:55:04.933Z,98403.09
2018-10-11T10:57:33.326Z,98397.08
2018-10-11T11:00:02.002Z,98395.75
2018-10-11T11:02:30.429Z,98396.62
2018-10-11T11:04:58.855Z,98398.47
2018-10-11T11:07:27.484Z,98391.41
2018-10-11T11:09:55.849Z,98386.53
2018-10-11T11:12:24.266Z,98391.28
2018-10-11T11:14:52.777Z,98383.59
2018-10-11T11:17:21.321Z,98385.31
2018-10-11T11:19:49.733Z,98376.38
2018-10-11T11:22:18.125Z,98377.34
2018-10-11T11:24:46.912Z,98373.73
2018-10-11T11:27:15.361Z,98365.02
2018-10-11T11:29:43.821Z,98365.53
2018-10-11T11:32:12.292Z,98361.77
2018-10-11T11:34:40.730Z,98358.22
2018-10-11T11:37:09.170Z,98368.27
2018-10-11T11:39:37.613Z,98369.85
2018-10-11T11:42:06.029Z,98363.80
2018-10-11T11:44:34.645Z,98362.57
2018-10-11T11:47:03.070Z,98366.96
2018-10-11T11:49:31.506Z,98357.15
2018-10-11T11:51:59.924Z,98361.06
2018-10-11T11:54:28.381Z,98353.02
2018-10-11T11:56:56.785Z,98366.21
2018-10-11T11:59:25.235Z,98358.25
2018-10-11T12:01:53.922Z,98363.63
2018-10-11T12:04:22.379Z,98365.77
2018-10-11T12:06:50.783Z,98360.87
2018-10-11T12:09:19.281Z,98366.48
2018-10-11T12:11:47.690Z,98373.98
2018-10-11T12:14:16.211Z,98377.44
2018-10-11T12:16:44.780Z,98375.02
2018-10-11T12:19:13.369Z,98375.13
2018-10-11T12:21:41.805Z,98371.53
2018-10-11T12:24:10.482Z,98365.95
2018-10-11T12:26:38.883Z,98367.31
2018-10-11T12:29:07.405Z,98368.34
2018-10-11T12:31:35.754Z,98375.56
2018-10-11T12:34:04.197Z,98372.04
2018-10-11T12:36:32.690Z,98373.63
2018-10-11T12:39:01.118Z,98379.38
2018-10-11T12:41:29.570Z,98375.94
2018-10-11T12:43:57.997Z,98377.11
2018-10-11T12:46:26.509Z,98383.08
2018-10-11T12:48:54.939Z,98381.27
2018-10-11T12:51:23.409Z,98377.76
2018-10-11T12:53:51.822Z,98375.98
2018-10-11T12:56:20.358Z,98379.18
2018-10-11T12:58:48.727Z,98383.27
2018-10-11T13:01:20.467Z,98391.77
2018-10-11T13:03:45.602Z,98393.44
2018-10-11T13:06:14.132Z,98399.52
2018-10-11T13:08:42.694Z,98400.72
2018-10-11T13:11:11.154Z,98402.37
2018-10-11T13:13:41.556Z,98408.96
2018-10-11T13:16:08.157Z,98410.11
2018-10-11T13:18:36.596Z,98413.70
2018-10-11T13:21:05.038Z,98407.85
2018-10-11T13:23:33.458Z,98398.55
2018-10-11T13:26:01.890Z,98405.20
2018-10-11T13:28:30.386Z,98405.14
2018-10-11T13:30:58.826Z,98403.64
2018-10-11T13:33:27.404Z,98404.61
2018-10-11T13:35:56.036Z,98406.42
2018-10-11T13:38:24.574Z,98403.56
2018-10-11T13:40:55.812Z,98404.16
2018-10-11T13:43:21.656Z,98405.09
2018-10-11T13:45:54.560Z,98417.18
2018-10-11T13:48:18.517Z,98420.64
2018-10-11T13:50:46.991Z,98417.89
2018-10-11T13:53:19.457Z,98417.17
2018-10-11T13:55:46.915Z,98408.67
2018-10-11T13:58:12.529Z,98410.53
2018-10-11T14:00:41.126Z,98410.59
2018-10-11T14:03:09.567Z,98404.11
2018-10-11T14:05:37.994Z,98403.78
2018-10-11T14:08:06.762Z,98405.38
2018-10-11T14:10:35.319Z,98401.56
2018-10-11T14:13:11.068Z,98403.45
2018-10-11T14:15:32.174Z,98400.34
2018-10-11T14:18:04.955Z,98394.53
2018-10-11T14:20:29.101Z,98385.29
2018-10-11T14:22:57.528Z,98382.56
2018-10-11T14:25:25.925Z,98379.51
2018-10-11T14:27:54.355Z,98379.64
2018-10-11T14:30:22.758Z,98379.67
2018-10-11T14:32:51.188Z,98380.17
2018-10-11T14:35:19.617Z,98376.66
2018-10-11T14:37:48.112Z,98373.30
2018-10-11T14:40:16.553Z,98376.14
2018-10-11T14:42:45.006Z,98367.72
2018-10-11T14:45:13.648Z,98361.89
2018-10-11T14:47:42.077Z,98363.77
2018-10-11T14:50:10.505Z,98368.69
2018-10-11T14:52:38.973Z,98372.86
2018-10-11T14:55:07.474Z,98374.08
2018-10-11T14:57:35.980Z,98373.20
2018-10-11T15:00:04.467Z,98380.52
2018-10-11T15:02:32.946Z,98371.85
2018-10-11T15:05:01.382Z,98358.32
2018-10-11T15:07:30.041Z,98366.49
2018-10-11T15:09:58.613Z,98371.06
2018-10-11T15:12:27.106Z,98377.81
2018-10-11T15:14:55.592Z,98369.27
2018-10-11T15:17:24.110Z,98368.02
2018-10-11T15:19:52.507Z,98364.70
2018-10-11T15:22:20.939Z,98371.33
2018-10-11T15:24:49.341Z,98373.78
2018-10-11T15:27:17.837Z,98380.75
2018-10-11T15:29:46.264Z,98372.53
2018-10-11T15:32:14.790Z,98374.38
2018-10-11T15:34:43.205Z,98381.59
2018-10-11T15:37:11.714Z,98371.81
2018-10-11T15:39:40.152Z,98370.63
2018-10-11T15:42:08.751Z,98376.61
2018-10-11T15:44:37.230Z,98374.14
2018-10-11T15:47:05.650Z,98375.36
2018-10-11T15:49:34.052Z,98369.61
2018-10-11T15:52:02.579Z,98365.38
2018-10-11T15:54:30.995Z,98367.31
2018-10-11T15:56:59.434Z,98366.43
2018-10-11T15:59:27.962Z,98370.77
2018-10-11T16:01:56.407Z,98372.15
2018-10-11T16:04:24.825Z,98377.72
2018-10-11T16:06:53.258Z,98378.02
2018-10-11T16:09:21.706Z,98374.12
2018-10-11T16:11:50.204Z,98375.69
2018-10-11T16:14:18.634Z,98377.40
2018-10-11T16:16:47.066Z,98379.27
2018-10-11T16:19:15.801Z,98379.95
2018-10-11T16:21:44.251Z,98381.06
2018-10-11T16:24:12.717Z,98387.34
2018-10-11T16:26:41.129Z,98382.61
2018-10-11T16:29:09.606Z,98380.55
2018-10-11T16:31:38.039Z,98386.02
2018-10-11T16:34:06.525Z,98382.52
2018-10-11T16:36:34.982Z,98388.13
2018-10-11T16:39:03.571Z,98383.43
2018-10-11T16:41:31.966Z,98378.36
2018-10-11T16:44:00.422Z,98382.27
2018-10-11T16:46:28.893Z,98379.44
2018-10-11T16:48:57.306Z,98375.48
2018-10-11T16:51:25.693Z,98381.58
2018-10-11T16:53:54.107Z,98380.75
2018-10-11T16:56:22.523Z,98381.78
2018-10-11T16:58:50.989Z,98392.66
2018-10-11T17:01:19.387Z,98398.42
2018-10-11T17:03:47.822Z,98394.75
2018-10-11T17:06:16.258Z,98396.12
2018-10-11T17:08:44.698Z,98399.00
2018-10-11T17:11:13.401Z,98401.04
2018-10-11T17:13:41.919Z,98410.34
2018-10-11T17:16:10.356Z,98406.61
2018-10-11T17:18:38.897Z,98403.55
2018-10-11T17:21:07.509Z,98401.04
2018-10-11T17:23:36.391Z,98406.77
2018-10-11T17:26:04.853Z,98407.93
2018-10-11T17:28:33.457Z,98416.00
2018-10-11T17:31:01.858Z,98419.19
2018-10-11T17:33:30.313Z,98419.20
2018-10-11T17:35:58.741Z,98424.41
2018-10-11T17:38:27.316Z,98422.72
2018-10-11T17:40:55.846Z,98426.77
2018-10-11T17:43:24.334Z,98433.87
2018-10-11T17:45:53.057Z,98427.12
2018-10-11T17:48:21.479Z,98429.48
2018-10-11T17:50:50.095Z,98429.17
2018-10-11T17:53:18.533Z,98443.69
2018-10-11T17:55:47.057Z,98439.64
2018-10-11T17:58:15.530Z,98446.77
2018-10-11T18:00:43.997Z,98447.45
2018-10-11T18:03:12.620Z,98451.86
2018-10-11T18:05:41.061Z,98452.48
2018-10-11T18:08:09.597Z,98457.88
2018-10-11T18:10:38.029Z,98459.50
2018-10-11T18:13:06.866Z,98458.26
2018-10-11T18:15:35.306Z,98467.14
2018-10-11T18:18:03.827Z,98472.80
2018-10-11T18:20:32.310Z,98475.69
2018-10-11T18:23:00.922Z,98485.91
2018-10-11T18:25:29.365Z,98489.20
2018-10-11T18:27:57.757Z,98489.30
2018-10-11T18:30:26.350Z,98498.69
2018-10-11T18:32:54.854Z,98496.50
2018-10-11T18:35:23.365Z,98499.80
2018-10-11T18:37:51.777Z,98501.42
2018-10-11T18:40:20.478Z,98505.09
2018-10-11T18:42:48.955Z,98499.93
2018-10-11T18:45:17.507Z,98501.91
2018-10-11T18:47:45.933Z,98505.62
2018-10-11T18:50:14.781Z,98511.22
2018-10-11T18:52:43.213Z,98505.91
2018-10-11T18:55:12.047Z,98514.87
2018-10-11T18:57:40.549Z,98514.56
2018-10-11T19:00:09.109Z,98520.89
2018-10-11T19:02:37.597Z,98517.50
2018-10-11T19:05:06.090Z,98522.83
2018-10-11T19:07:34.697Z,98522.61
2018-10-11T19:10:03.148Z,98528.14
2018-10-11T19:12:31.559Z,98528.58
2018-10-11T19:14:59.997Z,98533.33
2018-10-11T19:17:28.437Z,98540.77
2018-10-11T19:19:56.857Z,98551.72
2018-10-11T19:22:25.314Z,98556.29
2018-10-11T19:24:53.744Z,98566.08
2018-10-11T19:27:22.210Z,98579.10
2018-10-11T19:29:50.625Z,98579.73
2018-10-11T19:32:19.063Z,98589.69
2018-10-11T19:34:47.562Z,98589.47
2018-10-11T19:37:16.331Z,98583.14
2018-10-11T19:39:44.786Z,98586.59
2018-10-11T19:42:13.316Z,98589.22
2018-10-11T19:44:41.785Z,98594.71
2018-10-11T19:47:10.223Z,98593.11
2018-10-11T19:49:38.642Z,98602.14
2018-10-11T19:52:07.406Z,98601.94
2018-10-11T19:54:35.845Z,98599.86
2018-10-11T19:57:04.384Z,98600.92
2018-10-11T19:59:32.885Z,98606.54
2018-10-11T20:02:01.403Z,98605.47
2018-10-11T20:04:29.878Z,98604.42
2018-10-11T20:06:58.306Z,98610.88
2018-10-11T20:09:26.742Z,98620.73
2018-10-11T20:11:55.266Z,98623.48
2018-10-11T20:14:23.839Z,98622.88
2018-10-11T20:16:52.331Z,98621.91
2018-10-11T20:19:21.604Z,98634.48
2018-10-11T20:21:50.097Z,98633.64
2018-10-11T20:24:18.506Z,98634.28
2018-10-11T20:26:46.999Z,98642.45
2018-10-11T20:29:15.449Z,98651.32
2018-10-11T20:31:43.889Z,98656.22
2018-10-11T20:34:12.312Z,98651.48
2018-10-11T20:36:40.737Z,98655.47
2018-10-11T20:39:10.024Z,98655.17
2018-10-11T20:41:38.844Z,98660.20
2018-10-11T20:44:07.298Z,98661.05
2018-10-11T20:46:35.729Z,98672.02
2018-10-11T20:49:04.224Z,98678.36
2018-10-11T20:51:32.738Z,98685.08
2018-10-11T20:54:01.084Z,98687.64
2018-10-11T20:56:29.622Z,98689.91
2018-10-11T20:58:58.017Z,98698.01
2018-10-11T21:01:26.476Z,98697.03
2018-10-11T21:03:54.877Z,98706.28
2018-10-11T21:06:23.350Z,98699.22
2018-10-11T21:08:51.741Z,98701.06
2018-10-11T21:11:20.181Z,98699.36
2018-10-11T21:13:48.585Z,98702.70
2018-10-11T21:16:17.033Z,98702.20
2018-10-11T21:18:45.426Z,98702.50
2018-10-11T21:21:14.157Z,98711.00
2018-10-11T21:23:42.614Z,98706.05
2018-10-11T21:26:11.072Z,98705.84
2018-10-11T21:28:39.486Z,98709.37
2018-10-11T21:31:07.914Z,98700.80
2018-10-11T21:33:36.341Z,98703.16
2018-10-11T21:36:04.819Z,98703.16
2018-10-11T21:38:33.237Z,98702.11
2018-10-11T21:41:01.643Z,98700.55
2018-10-11T21:43:30.154Z,98709.88
2018-10-11T21:45:58.582Z,98714.34
2018-10-11T21:48:27.036Z,98716.34
2018-10-11T21:50:55.696Z,98725.25
2018-10-11T21:53:24.121Z,98730.46
2018-10-11T21:55:52.545Z,98730.04
2018-10-11T21:58:20.967Z,98741.41
2018-10-11T22:00:54.764Z,98741.39
2018-10-11T22:03:23.360Z,98738.50
2018-10-11T22:05:51.773Z,98734.46
2018-10-11T22:08:20.250Z,98725.81
2018-10-11T22:10:48.699Z,98732.12
2018-10-11T22:13:17.131Z,98726.13
2018-10-11T22:15:45.533Z,98729.53
2018-10-11T22:18:14.282Z,98733.95
2018-10-11T22:20:42.712Z,98734.70
2018-10-11T22:23:11.130Z,98734.50
2018-10-11T22:25:39.544Z,98734.45
2018-10-11T22:28:08.249Z,98733.52
2018-10-11T22:30:36.665Z,98732.97
2018-10-11T22:33:05.092Z,98737.21
2018-10-11T22:35:33.493Z,98732.04
2018-10-11T22:38:02.293Z,98732.45
2018-10-11T22:40:31.168Z,98726.09
2018-10-11T22:42:59.636Z,98727.55
2018-10-11T22:45:28.572Z,98730.19
2018-10-11T22:47:57.419Z,98736.50
2018-10-11T22:50:27.153Z,98744.86
2018-10-11T22:52:56.225Z,98736.97
2018-10-11T22:55:25.288Z,98746.48
2018-10-11T22:57:54.008Z,98751.48
2018-10-11T23:00:22.678Z,98751.39
2018-10-11T23:02:51.585Z,98751.11
2018-10-11T23:05:20.166Z,98749.39
2018-10-11T23:07:48.613Z,98754.95
2018-10-11T23:10:17.109Z,98761.55
2018-10-11T23:12:45.726Z,98763.80
2018-10-11T23:15:14.708Z,98772.41
2018-10-11T23:17:43.072Z,98772.47
2018-10-11T23:20:12.330Z,98768.55
2018-10-11T23:22:41.909Z,98765.36
2018-10-11T23:25:11.030Z,98770.23
2018-10-11T23:27:39.889Z,98768.89
2018-10-11T23:30:09.126Z,98764.86
2018-10-11T23:32:37.957Z,98769.93
2018-10-11T23:35:06.557Z,98781.05
2018-10-11T23:37:34.965Z,98784.67
2018-10-11T23:40:03.421Z,98787.98
2018-10-11T23:42:31.826Z,98787.81
2018-10-11T23:45:00.287Z,98787.83
2018-10-11T23:47:28.697Z,98790.52
2018-10-11T23:49:57.125Z,98793.64
2018-10-11T23:52:25.830Z,98799.14
2018-10-11T23:54:54.281Z,98802.89
2018-10-11T23:57:22.702Z,98810.33
2018-10-11T23:59:51.127Z,98812.02
